Time;durP1;ratioP1;P1;durP2;ratioP2;P2;SDS_P1;SDS_P2;PMS_P1;PMS_P2;Temp;Humidity;BMP_temperature;BMP_pressure;BME280_temperature;BME280_humidity;BME280_pressure;Samples;Min_cycle;Max_cycle;Signal;HPM_P1;HPM_P2
2022/04/19 00:00:27;;;;;;;6.70;4.60;;;;;;;6.53;65.49;100076.41;5590433;31;32464;-64
2022/04/19 00:03:30;;;;;;;6.12;4.10;;;;;;;6.51;65.04;100076.56;5590884;31;34588;-63
2022/04/19 00:06:33;;;;;;;6.12;3.97;;;;;;;6.51;64.25;100063.38;5591088;31;34097;-63
2022/04/19 00:09:36;;;;;;;7.20;4.15;;;;;;;6.48;64.09;100070.75;5589929;31;32966;-64
2022/04/19 00:12:38;;;;;;;5.18;3.95;;;;;;;6.43;64.19;100065.09;5590338;31;32411;-64
2022/04/19 00:15:41;;;;;;;6.68;3.90;;;;;;;6.45;64.97;100065.78;5590862;31;33904;-64
2022/04/19 00:18:43;;;;;;;5.62;3.80;;;;;;;6.48;64.30;100057.59;5590863;31;34627;-63
2022/04/19 00:21:46;;;;;;;5.15;3.83;;;;;;;6.42;64.57;100052.91;5589885;31;32760;-63
2022/04/19 00:24:49;;;;;;;5.75;3.95;;;;;;;6.35;65.21;100051.81;5590052;31;33327;-64
2022/04/19 00:27:52;;;;;;;7.40;4.15;;;;;;;6.28;65.20;100043.72;5590069;31;32487;-64
2022/04/19 00:30:54;;;;;;;6.37;3.92;;;;;;;6.34;65.01;100042.28;5590644;31;34665;-64
2022/04/19 00:33:58;;;;;;;6.80;4.07;;;;;;;6.26;65.06;100039.56;5589683;31;34119;-64
2022/04/19 00:37:01;;;;;;;6.70;4.22;;;;;;;6.26;65.27;100039.56;5590768;31;35174;-64
2022/04/19 00:40:06;;;;;;;7.15;4.22;;;;;;;6.26;65.26;100036.91;5590945;31;33786;-64
2022/04/19 00:43:10;;;;;;;7.95;4.10;;;;;;;6.24;66.28;100029.19;5590294;31;33866;-64
2022/04/19 00:46:13;;;;;;;8.55;4.40;;;;;;;6.19;66.66;100027.97;5589721;31;33586;-64
2022/04/19 00:49:17;;;;;;;8.70;4.43;;;;;;;6.11;66.67;100019.00;5590980;31;33975;-64
2022/04/19 00:52:20;;;;;;;5.72;4.00;;;;;;;6.24;65.08;100015.19;5590602;31;34706;-63
2022/04/19 00:55:23;;;;;;;10.50;4.30;;;;;;;6.25;65.38;100014.19;5590523;31;33936;-64
2022/04/19 00:58:29;;;;;;;7.87;4.07;;;;;;;6.18;66.29;100011.34;5589728;31;34017;-64
2022/04/19 01:01:33;;;;;;;6.30;4.05;;;;;;;6.12;66.90;100006.66;5590389;31;35160;-64
2022/04/19 01:04:36;;;;;;;6.97;3.83;;;;;;;5.99;68.13;100006.19;5590371;31;34743;-64
2022/04/19 01:07:39;;;;;;;5.90;4.10;;;;;;;5.93;68.36;100004.13;5590208;31;33939;-63
2022/04/19 01:10:44;;;;;;;7.72;4.37;;;;;;;6.10;66.99;100000.69;5589733;31;33397;-64
2022/04/19 01:13:49;;;;;;;7.32;4.35;;;;;;;6.25;67.36;100001.84;5590395;31;33559;-64
2022/04/19 01:16:53;;;;;;;9.13;4.78;;;;;;;6.14;67.58;100003.88;5589727;31;33663;-63
2022/04/19 01:19:56;;;;;;;8.07;4.62;;;;;;;6.10;67.77;100004.16;5590370;31;34634;-63
2022/04/19 01:23:00;;;;;;;5.90;4.20;;;;;;;6.10;67.27;100008.59;5590319;31;33903;-63
2022/04/19 01:26:02;;;;;;;7.47;4.22;;;;;;;6.07;67.80;100001.84;5590531;31;34125;-64
2022/04/19 01:29:05;;;;;;;6.70;3.90;;;;;;;6.00;67.67;100008.66;5590739;31;34601;-63
2022/04/19 01:32:08;;;;;;;5.30;3.83;;;;;;;5.98;68.26;99997.47;5590545;31;34177;-64
2022/04/19 01:35:18;;;;;;;5.82;4.32;;;;;;;5.99;66.63;99993.03;5590267;31;35192;-64
2022/04/19 01:38:21;;;;;;;7.43;3.80;;;;;;;5.98;67.13;99994.00;5590133;31;34628;-64
2022/04/19 01:41:25;;;;;;;6.43;3.72;;;;;;;5.93;67.28;99993.59;5590334;31;34145;-64
2022/04/19 01:44:28;;;;;;;4.72;3.30;;;;;;;5.89;66.45;99990.44;5590058;31;34024;-64
2022/04/19 01:47:30;;;;;;;5.25;3.25;;;;;;;5.83;67.29;99993.63;5590171;31;34396;-64
2022/04/19 01:50:36;;;;;;;5.07;3.17;;;;;;;5.80;67.73;99990.47;5590031;31;34695;-62
2022/04/19 01:53:40;;;;;;;5.18;3.10;;;;;;;5.83;66.09;99985.72;5588785;31;34924;-63
2022/04/19 01:56:44;;;;;;;4.55;3.00;;;;;;;5.89;64.53;99986.97;5588975;31;33731;-62
2022/04/19 01:59:47;;;;;;;4.85;2.90;;;;;;;5.98;64.44;99980.81;5590003;31;35196;-62
2022/04/19 02:02:50;;;;;;;4.95;2.78;;;;;;;5.96;64.43;99980.97;5588966;31;32587;-63
2022/04/19 02:05:53;;;;;;;5.65;3.05;;;;;;;5.91;63.23;99977.94;5589889;31;34225;-62
2022/04/19 02:08:57;;;;;;;4.45;2.72;;;;;;;5.95;62.72;99979.34;5589215;31;32735;-62
2022/04/19 02:12:00;;;;;;;5.53;3.28;;;;;;;5.92;62.84;99984.88;5589752;31;34205;-62
2022/04/19 02:15:05;;;;;;;5.50;3.30;;;;;;;5.98;63.45;99981.66;5589436;31;35168;-62
2022/04/19 02:18:10;;;;;;;4.10;2.90;;;;;;;5.94;62.98;99971.56;5590129;31;33922;-62
2022/04/19 02:21:12;;;;;;;4.32;2.70;;;;;;;5.86;64.18;99968.81;5588633;31;33953;-63
2022/04/19 02:24:15;;;;;;;3.92;2.80;;;;;;;5.91;64.00;99970.06;5589005;31;33467;-62
2022/04/19 02:27:18;;;;;;;4.80;2.58;;;;;;;5.92;63.89;99974.34;5589606;31;33955;-63
2022/04/19 02:30:21;;;;;;;5.53;3.00;;;;;;;5.79;64.17;99965.13;5588594;31;33536;-63
2022/04/19 02:33:24;;;;;;;7.30;2.90;;;;;;;5.73;65.46;99965.69;5589977;31;34200;-63
2022/04/19 02:36:27;;;;;;;5.60;2.92;;;;;;;5.56;65.67;99956.78;5589677;31;33937;-63
2022/04/19 02:39:30;;;;;;;4.57;2.90;;;;;;;5.37;65.98;99965.59;5589614;31;34099;-63
2022/04/19 02:42:32;;;;;;;5.62;3.15;;;;;;;5.25;66.52;99966.75;5589426;31;34882;-63
2022/04/19 02:45:35;;;;;;;4.32;2.72;;;;;;;5.15;67.31;99969.41;5589834;31;34017;-62
2022/04/19 02:48:39;;;;;;;5.62;3.37;;;;;;;5.01;67.93;99969.87;5588860;31;33134;-62
2022/04/19 02:51:41;;;;;;;4.78;3.20;;;;;;;4.90;68.79;99969.19;5589561;31;34025;-63
2022/04/19 02:54:44;;;;;;;5.22;2.90;;;;;;;4.81;70.07;99973.50;5589565;31;34685;-62
2022/04/19 02:57:47;;;;;;;4.53;3.20;;;;;;;4.79;69.96;99972.81;5589325;31;35269;-63
2022/04/19 03:00:49;;;;;;;5.65;3.42;;;;;;;4.73;70.18;99963.69;5589263;31;34137;-63
2022/04/19 03:03:53;;;;;;;6.18;3.62;;;;;;;4.66;71.45;99970.47;5589330;31;33915;-62
2022/04/19 03:06:56;;;;;;;6.68;3.60;;;;;;;4.65;71.27;99968.81;5589259;31;33484;-63
2022/04/19 03:09:59;;;;;;;6.45;4.10;;;;;;;4.65;71.37;99975.84;5589183;31;34654;-63
2022/04/19 03:13:02;;;;;;;7.40;3.78;;;;;;;4.57;71.41;99971.31;5589153;31;34082;-63
2022/04/19 03:16:05;;;;;;;4.95;3.22;;;;;;;4.55;72.27;99969.81;5589223;31;34607;-63
2022/04/19 03:19:08;;;;;;;7.10;3.62;;;;;;;4.61;72.54;99974.47;5589097;31;34485;-63
2022/04/19 03:22:11;;;;;;;5.75;3.50;;;;;;;4.65;73.49;99976.69;5589501;31;33906;-62
2022/04/19 03:28:37;;;;;;;5.62;3.30;;;;;;;4.75;73.92;99961.75;5589288;31;35127;-63
2022/04/19 03:31:40;;;;;;;4.90;3.40;;;;;;;4.90;72.59;99969.19;5588408;31;34765;-63
2022/04/19 03:34:43;;;;;;;6.37;3.30;;;;;;;4.93;72.92;99961.03;5588289;31;33229;-62
2022/04/19 03:37:47;;;;;;;4.62;3.28;;;;;;;5.03;72.00;99959.22;5588061;31;33945;-63
2022/04/19 03:40:50;;;;;;;4.95;3.20;;;;;;;4.98;72.56;99959.66;5588111;31;33441;-63
2022/04/19 03:43:53;;;;;;;8.38;3.33;;;;;;;4.98;72.73;99957.00;5588537;31;34222;-63
2022/04/19 03:47:09;;;;;;;4.82;3.37;;;;;;;5.04;72.98;99959.06;5587905;31;33943;-63
2022/04/19 03:50:12;;;;;;;6.72;3.45;;;;;;;5.07;72.26;99955.31;5588608;31;34639;-63
2022/04/19 03:53:15;;;;;;;5.60;3.80;;;;;;;5.09;72.41;99950.72;5588598;31;33926;-63
2022/04/19 03:56:17;;;;;;;5.53;3.40;;;;;;;5.20;72.41;99953.19;5587629;31;32542;-63
2022/04/19 03:59:22;;;;;;;8.75;3.60;;;;;;;5.14;72.21;99949.34;5588522;31;34023;-63
2022/04/19 04:02:26;;;;;;;7.35;3.60;;;;;;;5.09;72.12;99959.44;5587392;31;32430;-63
2022/04/19 04:05:29;;;;;;;5.18;3.25;;;;;;;5.15;71.58;99956.25;5588543;31;33923;-63
2022/04/19 04:08:31;;;;;;;4.72;3.20;;;;;;;5.24;71.53;99955.37;5587720;31;33897;-63
2022/04/19 04:11:35;;;;;;;6.40;3.35;;;;;;;5.15;71.52;99953.63;5587330;31;33937;-63
2022/04/19 04:14:40;;;;;;;4.68;2.90;;;;;;;5.14;71.68;99956.37;5588097;31;34732;-63
2022/04/19 04:17:44;;;;;;;5.25;3.20;;;;;;;5.18;71.44;99961.22;5588176;31;34130;-63
2022/04/19 04:20:47;;;;;;;6.20;3.53;;;;;;;5.25;71.22;99964.13;5587553;31;32471;-63
2022/04/19 04:23:50;;;;;;;5.45;3.20;;;;;;;5.27;70.88;99949.03;5588424;31;34029;-63
2022/04/19 04:26:53;;;;;;;7.65;3.53;;;;;;;5.21;71.10;99960.12;5587175;31;32413;-63
2022/04/19 04:29:56;;;;;;;4.78;3.30;;;;;;;5.26;71.55;99952.63;5587805;31;34086;-63
2022/04/19 04:32:59;;;;;;;5.05;2.97;;;;;;;5.51;70.63;99961.66;5587760;31;33895;-63
2022/04/19 04:36:01;;;;;;;5.53;3.10;;;;;;;5.43;69.09;99959.75;5587924;31;34005;-63
2022/04/19 04:39:05;;;;;;;4.43;2.83;;;;;;;5.38;68.52;99963.78;5587301;31;32362;-62
2022/04/19 04:42:09;;;;;;;7.07;3.42;;;;;;;5.35;68.84;99953.56;5586724;31;33776;-63
2022/04/19 04:45:11;;;;;;;4.82;2.78;;;;;;;5.31;69.93;99971.44;5590329;31;34514;-63
2022/04/19 04:51:37;;;;;;;5.50;3.20;;;;;;;5.39;67.39;99957.53;5590806;31;34662;-63
2022/04/19 04:54:42;;;;;;;4.90;2.83;;;;;;;5.51;67.37;99965.13;5590865;31;34606;-63
2022/04/19 04:57:46;;;;;;;3.65;2.62;;;;;;;5.35;67.50;99964.91;5590295;31;34568;-63
2022/04/19 05:00:49;;;;;;;5.68;3.67;;;;;;;5.50;67.09;99970.53;5589216;31;32620;-63
2022/04/19 05:03:57;;;;;;;6.97;3.22;;;;;;;5.49;66.30;99960.97;5590376;31;35183;-63
2022/04/19 05:07:01;;;;;;;4.05;2.72;;;;;;;5.55;66.10;99963.03;5590035;31;33986;-64
2022/04/19 05:10:05;;;;;;;5.40;3.15;;;;;;;5.53;65.84;99972.84;5590286;31;34086;-63
2022/04/19 05:13:08;;;;;;;7.55;3.40;;;;;;;5.58;65.71;99966.19;5590244;31;35233;-64
2022/04/19 05:16:11;;;;;;;6.00;3.55;;;;;;;5.63;65.31;99965.75;5589475;31;33596;-64
2022/04/19 05:19:14;;;;;;;6.20;3.70;;;;;;;5.67;65.57;99970.56;5590171;31;34287;-63
2022/04/19 05:22:21;;;;;;;5.43;3.42;;;;;;;5.96;65.27;99962.53;5589982;31;34020;-63
2022/04/19 05:25:24;;;;;;;4.47;3.53;;;;;;;6.08;63.90;99963.16;5590354;31;34533;-62
2022/04/19 05:28:27;;;;;;;6.82;3.65;;;;;;;6.09;64.08;99965.66;5590110;31;34271;-62
2022/04/19 05:31:30;;;;;;;8.63;4.15;;;;;;;6.27;63.38;99976.19;5589389;31;34010;-64
2022/04/19 05:34:33;;;;;;;5.05;3.30;;;;;;;6.24;61.38;99970.41;5590182;31;34046;-63
2022/04/19 05:37:37;;;;;;;4.85;3.25;;;;;;;6.29;61.36;99968.97;5589919;31;34026;-63
2022/04/19 05:40:40;;;;;;;6.22;3.37;;;;;;;6.45;60.71;99963.84;5589809;31;34137;-64
2022/04/19 05:43:44;;;;;;;6.57;3.85;;;;;;;6.29;60.85;99968.97;5588704;31;35219;-63
2022/04/19 05:46:47;;;;;;;3.97;2.80;;;;;;;6.67;59.99;99970.47;5589671;31;34139;-63
2022/04/19 05:49:51;;;;;;;10.85;3.20;;;;;;;6.88;58.44;99967.47;5589864;31;34027;-64
2022/04/19 05:53:00;;;;;;;3.47;2.42;;;;;;;6.70;59.02;99974.59;5589780;31;33996;-64
2022/04/19 05:56:03;;;;;;;5.75;2.90;;;;;;;6.99;58.89;99972.50;5588862;31;33611;-64
2022/04/19 05:59:06;;;;;;;3.87;2.75;;;;;;;7.09;57.78;99977.66;5589983;31;33947;-64
2022/04/19 06:05:31;;;;;;;3.28;2.47;;;;;;;7.28;56.63;99980.91;5589303;31;34239;-63
2022/04/19 06:08:34;;;;;;;4.95;2.50;;;;;;;6.95;56.61;99965.88;5589058;31;33984;-63
2022/04/19 06:11:37;;;;;;;4.18;2.60;;;;;;;6.90;57.97;99970.78;5589050;31;35297;-63
2022/04/19 06:14:40;;;;;;;4.55;2.78;;;;;;;6.56;58.51;99975.97;5588953;31;33584;-63
2022/04/19 06:17:44;;;;;;;7.00;2.92;;;;;;;6.71;58.39;99973.62;5575219;31;34126;-63
2022/04/19 06:20:47;;;;;;;6.93;3.70;;;;;;;6.53;58.96;99977.06;5589350;31;34364;-64
2022/04/19 06:23:49;;;;;;;4.93;3.08;;;;;;;6.88;59.29;99978.00;5589452;31;35198;-63
2022/04/19 06:26:52;;;;;;;6.95;3.17;;;;;;;6.74;58.72;99976.75;5588073;31;34150;-64
2022/04/19 06:29:57;;;;;;;5.03;3.08;;;;;;;6.68;59.14;99968.66;5588723;31;33971;-63
2022/04/19 06:33:00;;;;;;;7.57;3.55;;;;;;;6.73;59.06;99961.91;5588167;31;33253;-64
2022/04/19 06:36:05;;;;;;;5.93;3.10;;;;;;;6.75;59.21;99967.88;5588606;31;32729;-64
2022/04/19 06:39:07;;;;;;;9.77;3.58;;;;;;;6.95;58.87;99963.25;5588948;31;33914;-63
2022/04/19 06:42:11;;;;;;;4.05;2.97;;;;;;;7.15;58.18;99962.06;5589182;31;35198;-63
2022/04/19 06:45:17;;;;;;;5.35;3.03;;;;;;;6.81;56.60;99969.91;5588487;31;33712;-63
2022/04/19 06:48:21;;;;;;;6.00;2.78;;;;;;;6.93;57.09;99975.75;5589009;31;34172;-64
2022/04/19 06:51:25;;;;;;;5.50;2.70;;;;;;;7.17;57.48;99975.06;5588842;31;33287;-63
2022/04/19 06:54:35;;;;;;;4.30;2.50;;;;;;;7.31;55.56;99974.53;5588769;31;32488;-64
2022/04/19 06:57:39;;;;;;;4.78;2.78;;;;;;;8.03;55.11;99973.16;5589679;31;34283;-63
2022/04/19 07:00:42;;;;;;;5.87;3.17;;;;;;;9.11;50.85;99963.13;5588546;31;33181;-63
2022/04/19 07:03:44;;;;;;;6.35;3.20;;;;;;;9.01;51.01;99959.84;5588115;31;32545;-63
2022/04/19 07:06:49;;;;;;;4.45;2.72;;;;;;;9.90;49.49;99962.19;5586999;31;34077;-63
2022/04/19 07:09:52;;;;;;;4.65;2.87;;;;;;;10.47;47.35;99964.50;5589079;31;34004;-63
2022/04/19 07:12:55;;;;;;;3.92;2.67;;;;;;;10.69;45.85;99955.72;5587942;31;32890;-64
2022/04/19 07:15:58;;;;;;;4.80;2.90;;;;;;;10.59;45.08;99959.62;5588966;31;34258;-64
2022/04/19 07:19:01;;;;;;;5.57;2.47;;;;;;;11.67;43.94;99961.66;5587754;31;32682;-65
2022/04/19 07:28:47;;;;;;;4.72;2.53;;;;;;;11.16;43.99;99958.09;5588835;31;33942;-64
2022/04/19 07:31:51;;;;;;;3.83;2.70;;;;;;;11.61;43.30;99957.09;5588848;31;34297;-64
2022/04/19 07:34:56;;;;;;;5.65;2.10;;;;;;;10.19;45.56;99964.22;5589064;31;34857;-64
2022/04/19 07:37:59;;;;;;;5.07;2.50;;;;;;;10.29;45.71;99958.69;5588037;31;32551;-65
2022/04/19 07:41:04;;;;;;;5.28;2.40;;;;;;;10.51;45.72;99955.19;5588910;31;35155;-64
2022/04/19 07:44:08;;;;;;;4.32;2.62;;;;;;;9.86;46.85;99957.41;5589023;31;33939;-64
2022/04/19 07:47:14;;;;;;;4.12;2.83;;;;;;;11.06;43.65;99952.22;5587822;31;32420;-65
2022/04/19 07:50:17;;;;;;;5.57;2.60;;;;;;;11.42;43.38;99955.00;5588302;31;34109;-63
2022/04/19 07:53:20;;;;;;;5.25;2.53;;;;;;;11.27;43.32;99951.53;5586893;31;33755;-64
2022/04/19 07:56:24;;;;;;;5.65;2.80;;;;;;;11.56;43.49;99956.00;5587581;31;33362;-64
2022/04/19 07:59:27;;;;;;;3.37;2.35;;;;;;;12.28;41.08;99948.91;5574647;31;32057;-64
2022/04/19 08:02:30;;;;;;;4.18;2.10;;;;;;;13.23;39.66;99949.31;5588317;31;33304;-63
2022/04/19 08:05:34;;;;;;;3.95;2.33;;;;;;;13.64;38.41;99953.88;5588838;31;34596;-64
2022/04/19 08:08:37;;;;;;;4.53;2.62;;;;;;;13.57;38.33;99947.66;5588193;31;33945;-64
2022/04/19 08:11:40;;;;;;;4.97;2.22;;;;;;;14.82;35.41;99945.34;5587379;31;32555;-65
2022/04/19 08:14:43;;;;;;;2.70;2.22;;;;;;;14.84;35.63;99953.97;5588407;31;33944;-64
2022/04/19 08:17:47;;;;;;;4.05;2.47;;;;;;;14.46;36.28;99940.41;5588745;31;35230;-64
2022/04/19 08:20:51;;;;;;;2.47;2.05;;;;;;;14.83;34.66;99947.81;5590583;31;34280;-64
2022/04/19 08:23:54;;;;;;;3.33;2.35;;;;;;;13.39;37.94;99948.19;5589939;31;33068;-64
2022/04/19 08:26:57;;;;;;;6.30;2.50;;;;;;;14.78;36.21;99947.59;5590600;31;34156;-64
2022/04/19 08:30:02;;;;;;;4.10;2.20;;;;;;;14.92;34.57;99948.41;5590329;31;34265;-65
2022/04/19 08:33:05;;;;;;;4.65;2.87;;;;;;;14.96;34.68;99955.81;5589613;31;33336;-64
2022/04/19 08:36:09;;;;;;;3.47;2.45;;;;;;;14.11;35.81;99945.00;5589480;31;32749;-64
2022/04/19 08:39:12;;;;;;;3.92;2.22;;;;;;;11.28;40.93;99953.16;5590559;31;34277;-64
2022/04/19 08:42:15;;;;;;;4.05;2.55;;;;;;;11.94;39.73;99951.41;5590496;31;33951;-64
2022/04/19 08:45:20;;;;;;;4.80;2.47;;;;;;;11.96;39.62;99947.53;5589969;31;33989;-64
2022/04/19 08:48:27;;;;;;;2.95;2.08;;;;;;;13.10;37.74;99940.41;5588837;31;33628;-64
2022/04/19 08:51:34;;;;;;;3.78;2.28;;;;;;;13.85;35.93;99938.56;5590113;31;35458;-64
2022/04/19 08:57:59;;;;;;;4.82;2.30;;;;;;;15.00;35.10;99934.88;5590219;31;34505;-64
2022/04/19 09:01:02;;;;;;;4.15;2.12;;;;;;;14.02;36.42;99936.38;5588529;31;33326;-64
2022/04/19 09:04:04;;;;;;;5.85;2.40;;;;;;;14.54;35.04;99929.50;5589370;31;32668;-64
2022/04/19 09:07:08;;;;;;;4.85;2.45;;;;;;;14.19;36.56;99923.47;5588967;31;33510;-64
2022/04/19 09:10:14;;;;;;;3.50;2.33;;;;;;;14.24;35.72;99926.34;5589567;31;34212;-64
2022/04/19 09:13:23;;;;;;;3.20;2.17;;;;;;;13.97;36.23;99925.47;5588904;31;34560;-64
2022/04/19 09:16:26;;;;;;;4.40;2.42;;;;;;;14.59;36.66;99921.72;5589650;31;34030;-64
2022/04/19 09:19:29;;;;;;;3.25;2.40;;;;;;;16.53;31.99;99925.00;5589418;31;33977;-64
2022/04/19 09:22:31;;;;;;;3.97;2.30;;;;;;;15.16;33.43;99921.06;5588919;31;33408;-64
2022/04/19 09:25:36;;;;;;;4.18;2.22;;;;;;;15.50;32.95;99919.94;5590052;31;34012;-64
2022/04/19 09:28:39;;;;;;;5.18;2.20;;;;;;;16.41;32.99;99913.31;5588149;31;32591;-65
2022/04/19 09:31:42;;;;;;;5.80;2.22;;;;;;;17.95;30.05;99913.28;5589964;31;34081;-64
2022/04/19 09:34:48;;;;;;;3.80;2.20;;;;;;;17.67;30.56;99918.38;5576092;31;33538;-64
2022/04/19 09:37:51;;;;;;;4.10;2.35;;;;;;;15.85;32.79;99917.78;5589802;31;34122;-65
2022/04/19 09:40:54;;;;;;;2.90;2.15;;;;;;;16.42;31.49;99911.47;5588753;31;32458;-64
2022/04/19 09:44:17;;;;;;;3.12;1.90;;;;;;;17.08;30.70;99906.41;5589310;31;32661;-64
2022/04/19 09:47:20;;;;;;;3.30;2.05;;;;;;;16.88;31.52;99911.13;5589183;31;34684;-64
2022/04/19 09:50:23;;;;;;;3.80;2.10;;;;;;;15.85;31.89;99909.75;5589142;31;33933;-64
2022/04/19 09:53:27;;;;;;;6.75;2.28;;;;;;;14.57;34.86;99916.56;5588959;31;33262;-64
2022/04/19 09:56:37;;;;;;;3.55;2.50;;;;;;;14.50;35.77;99907.75;5589654;31;34241;-64
2022/04/19 09:59:49;;;;;;;6.60;2.10;;;;;;;14.41;36.82;99905.50;5577333;31;32553;-65
2022/04/19 10:09:39;;;;;;;3.30;2.45;;;;;;;13.87;37.01;99912.53;5589001;31;33712;-64
2022/04/19 10:12:44;;;;;;;3.15;2.25;;;;;;;14.46;35.68;99905.69;5588672;31;33765;-64
2022/04/19 10:15:47;;;;;;;2.90;2.30;;;;;;;14.59;35.54;99908.38;5588774;31;33570;-64
2022/04/19 10:18:50;;;;;;;3.22;1.92;;;;;;;15.14;34.60;99905.25;5588303;31;33677;-65
2022/04/19 10:21:58;;;;;;;5.57;2.40;;;;;;;15.08;35.22;99906.09;5589125;31;33216;-65
2022/04/19 10:25:03;;;;;;;3.72;2.72;;;;;;;15.01;34.90;99894.56;5588706;31;34136;-64
2022/04/19 10:28:11;;;;;;;4.03;2.20;;;;;;;14.22;36.40;99894.56;5584942;31;148953;-64
2022/04/19 10:31:24;;;;;;;5.45;2.37;;;;;;;13.39;38.19;99893.06;5589124;31;34183;-65
2022/04/19 10:34:29;;;;;;;7.37;2.22;;;;;;;12.97;37.87;99882.56;5588758;31;33726;-64
2022/04/19 10:37:32;;;;;;;3.10;2.28;;;;;;;13.44;37.91;99893.28;5588210;31;33447;-66
2022/04/19 10:40:51;;;;;;;4.18;2.40;;;;;;;13.99;36.37;99886.09;5587535;31;32741;-65
2022/04/19 10:44:23;;;;;;;3.22;2.20;;;;;;;13.61;37.00;99880.44;5589302;31;33959;-64
2022/04/19 10:47:28;;;;;;;3.80;2.62;;;;;;;13.89;37.19;99886.47;5588662;31;34207;-64
2022/04/19 10:50:34;;;;;;;2.58;2.00;;;;;;;13.66;37.52;99887.81;5588561;31;33188;-64
2022/04/19 10:53:37;;;;;;;5.07;2.42;;;;;;;13.47;38.85;99887.56;5589543;31;34518;-64
2022/04/19 10:58:05;;;;;;;3.35;2.33;;;;;;;12.95;38.68;99888.06;5588493;31;34174;-63
2022/04/19 11:00:40;;;;;;;2.95;2.10;;;;;;;13.63;37.28;99880.25;5588710;31;32571;-64
2022/04/19 11:04:03;;;;;;;3.75;2.55;;;;;;;14.33;35.67;99885.13;5589287;31;34653;-63
2022/04/19 11:07:42;;;;;;;2.83;2.42;;;;;;;14.68;34.63;99886.59;5588970;31;35239;-64
2022/04/19 11:10:56;;;;;;;3.50;2.50;;;;;;;14.40;35.48;99880.66;5588049;31;32972;-64
2022/04/19 11:14:29;;;;;;;4.47;2.65;;;;;;;12.72;38.74;99887.50;5588993;31;33964;-64
2022/04/19 11:17:41;;;;;;;6.25;2.60;;;;;;;11.96;40.52;99896.19;5588222;31;33108;-64
2022/04/19 11:20:47;;;;;;;5.97;3.20;;;;;;;11.80;41.66;99888.47;5588066;31;33170;-63
2022/04/19 11:23:50;;;;;;;5.28;2.90;;;;;;;12.06;41.12;99886.06;5588634;31;34026;-64
2022/04/19 11:26:53;;;;;;;4.07;3.17;;;;;;;11.36;42.78;99892.00;5588657;31;33114;-64
2022/04/19 11:29:56;;;;;;;3.28;2.60;;;;;;;11.81;41.94;99882.16;5587699;31;33694;-64
2022/04/19 11:32:59;;;;;;;5.05;2.70;;;;;;;11.84;41.12;99887.91;5588501;31;35290;-63
2022/04/19 11:36:11;;;;;;;4.60;2.47;;;;;;;12.07;41.35;99891.22;5588663;31;34611;-63
2022/04/19 11:49:34;;;;;;;4.00;2.80;;;;;;;10.57;46.64;99900.63;5587855;31;33091;-63
2022/04/19 11:52:37;;;;;;;5.95;3.08;;;;;;;10.62;46.29;99898.25;5589768;31;33913;-63
2022/04/19 11:55:50;;;;;;;4.50;2.80;;;;;;;10.68;47.53;99900.19;5590924;31;33989;-64
2022/04/19 11:58:58;;;;;;;6.65;2.97;;;;;;;10.48;50.31;99910.47;5590598;31;34303;-64
2022/04/19 12:02:03;;;;;;;6.53;3.55;;;;;;;10.20;53.99;99918.16;5590783;31;33981;-64
2022/04/19 12:05:06;;;;;;;7.15;3.65;;;;;;;10.01;56.79;99915.94;5590727;31;34593;-63
2022/04/19 12:08:10;;;;;;;4.90;3.50;;;;;;;9.68;56.43;99914.47;5590721;31;34042;-64
2022/04/19 12:11:16;;;;;;;4.70;3.42;;;;;;;9.75;57.19;99916.25;5590923;31;34650;-63
2022/04/19 12:14:29;;;;;;;6.28;3.50;;;;;;;9.73;54.91;99912.94;5589786;31;32459;-64
2022/04/19 12:17:32;;;;;;;6.90;3.55;;;;;;;9.86;56.09;99913.22;5590665;31;34561;-63
2022/04/19 12:20:44;;;;;;;6.90;4.37;;;;;;;9.37;51.54;99914.44;5590744;31;34093;-63
2022/04/19 12:23:51;;;;;;;7.97;4.45;;;;;;;9.36;53.96;99916.25;5591126;31;34312;-63
2022/04/19 12:27:07;;;;;;;7.10;4.20;;;;;;;9.19;54.70;99917.31;5590581;31;34161;-65
2022/04/19 12:30:13;;;;;;;6.62;4.18;;;;;;;9.35;54.78;99909.28;5590786;31;34101;-64
2022/04/19 12:33:16;;;;;;;6.60;4.30;;;;;;;9.37;56.07;99925.84;5590563;31;34095;-63
2022/04/19 12:36:22;;;;;;;6.35;3.97;;;;;;;9.30;58.21;99924.03;5590617;31;33901;-63
2022/04/19 12:39:25;;;;;;;5.68;4.30;;;;;;;8.77;58.99;99925.47;5589610;31;32715;-62
2022/04/19 12:42:28;;;;;;;6.43;4.90;;;;;;;8.66;61.52;99941.72;5589544;31;33611;-63
2022/04/19 12:45:33;;;;;;;5.22;4.07;;;;;;;8.35;63.41;99946.81;5590491;31;33981;-63
2022/04/19 12:48:36;;;;;;;4.95;4.10;;;;;;;7.68;68.53;99950.44;5590010;31;34840;-62
2022/04/19 12:51:39;;;;;;;6.15;4.80;;;;;;;7.80;67.73;99954.41;5590581;31;34673;-63
2022/04/19 12:54:44;;;;;;;81.80;16.83;;;;;;;7.71;67.46;99952.75;5590215;31;33862;-63
2022/04/19 12:58:04;;;;;;;12.40;5.47;;;;;;;7.79;67.02;99948.31;5576708;31;33520;-63
2022/04/19 13:01:07;;;;;;;;;;;;;;;8.18;68.18;99934.56;5590558;31;35219;-63
2022/04/19 13:04:10;;;;;;;6.93;4.55;;;;;;;7.85;67.90;99934.47;5589646;31;34412;-62
2022/04/19 13:13:55;;;;;;;6.45;4.85;;;;;;;8.69;65.58;99925.50;5589935;31;35194;-63
2022/04/19 13:16:58;;;;;;;6.00;4.60;;;;;;;9.14;65.15;99924.94;5590577;31;33836;-62
2022/04/19 13:20:02;;;;;;;8.32;4.35;;;;;;;9.38;62.37;99918.72;5589531;31;33257;-63
2022/04/19 13:23:05;;;;;;;6.45;4.80;;;;;;;10.19;60.20;99921.81;5589409;31;32449;-63
2022/04/19 13:26:08;;;;;;;4.93;4.00;;;;;;;10.05;58.05;99927.84;5590073;31;34074;-63
2022/04/19 13:29:11;;;;;;;6.57;3.80;;;;;;;10.52;56.70;99932.97;5590454;31;35148;-64
2022/04/19 13:32:14;;;;;;;5.95;4.00;;;;;;;10.83;56.08;99919.63;5589869;31;34614;-63
2022/04/19 13:35:17;;;;;;;5.07;3.80;;;;;;;11.12;54.80;99929.44;5589643;31;35176;-63
2022/04/19 13:38:25;;;;;;;6.60;4.18;;;;;;;10.34;58.86;99928.00;5589989;31;35229;-63
2022/04/19 13:41:28;;;;;;;5.95;3.92;;;;;;;10.30;58.42;99923.22;5589612;31;33983;-63
2022/04/19 13:44:31;;;;;;;6.80;3.72;;;;;;;11.13;55.07;99928.44;5589743;31;34602;-64
2022/04/19 13:47:33;;;;;;;6.10;4.20;;;;;;;11.45;54.38;99921.94;5588939;31;33069;-64
2022/04/19 13:50:36;;;;;;;4.75;3.40;;;;;;;11.86;52.22;99920.41;5588657;31;33736;-64
2022/04/19 13:53:39;;;;;;;7.12;4.05;;;;;;;12.75;49.08;99916.38;5589669;31;34014;-63
2022/04/19 13:56:43;;;;;;;6.25;3.62;;;;;;;14.55;45.13;99915.97;5589039;31;32481;-64
2022/04/19 13:59:47;;;;;;;6.28;3.72;;;;;;;15.30;42.17;99914.66;5589764;31;34384;-63
2022/04/19 14:02:50;;;;;;;6.53;3.47;;;;;;;16.34;39.82;99914.41;5589457;31;34331;-64
2022/04/19 14:05:54;;;;;;;5.00;3.40;;;;;;;15.91;40.70;99912.41;5588940;31;33047;-63
2022/04/19 14:08:57;;;;;;;5.45;4.00;;;;;;;13.76;44.68;99922.94;5589613;31;34517;-64
2022/04/19 14:12:04;;;;;;;6.43;3.95;;;;;;;10.79;53.54;99935.09;5589437;31;35236;-63
2022/04/19 14:15:07;;;;;;;5.15;3.78;;;;;;;10.08;58.96;99939.87;5588840;31;32610;-63
2022/04/19 14:18:10;;;;;;;8.90;5.05;;;;;;;8.67;73.52;99954.75;5589733;31;33918;-66
2022/04/19 14:21:13;;;;;;;10.13;4.85;;;;;;;7.73;88.37;99958.69;5589863;31;33882;-66
2022/04/19 14:24:16;;;;;;;8.68;4.95;;;;;;;7.13;98.39;99961.38;5589047;31;32740;-66
2022/04/19 14:27:18;;;;;;;9.32;6.10;;;;;;;6.76;97.64;99958.16;5589665;31;34121;-66
2022/04/19 14:33:43;;;;;;;9.38;6.28;;;;;;;6.34;100.00;99952.72;5588767;31;32684;-65
2022/04/19 14:36:45;;;;;;;8.50;6.20;;;;;;;5.87;100.00;99959.97;5588823;31;32523;-65
2022/04/19 14:39:48;;;;;;;9.90;6.62;;;;;;;5.58;100.00;99958.28;5589642;31;34193;-64
2022/04/19 14:42:51;;;;;;;8.98;6.53;;;;;;;5.32;100.00;99956.50;5588791;31;32785;-63
2022/04/19 14:45:54;;;;;;;9.05;5.70;;;;;;;5.09;100.00;99962.09;5589736;31;33903;-63
2022/04/19 14:48:56;;;;;;;7.05;5.65;;;;;;;5.07;100.00;99965.84;5588988;31;34132;-64
2022/04/19 14:52:14;;;;;;;7.90;5.85;;;;;;;5.15;100.00;99956.25;5588392;31;32547;-64
2022/04/19 14:55:17;;;;;;;8.20;6.40;;;;;;;5.37;100.00;99954.25;5589020;31;34667;-63
2022/04/19 14:58:20;;;;;;;9.65;6.90;;;;;;;5.62;100.00;99962.28;5588402;31;32717;-64
2022/04/19 15:01:23;;;;;;;10.32;6.95;;;;;;;5.92;100.00;99976.16;5588641;31;32564;-64
2022/04/19 15:04:26;;;;;;;9.32;6.65;;;;;;;5.76;100.00;99973.31;5589047;31;35267;-64
2022/04/19 15:07:29;;;;;;;8.85;6.93;;;;;;;5.82;100.00;99970.91;5589158;31;34192;-64
2022/04/19 15:10:31;;;;;;;11.82;7.28;;;;;;;5.55;100.00;99970.91;5588800;31;35268;-64
2022/04/19 15:13:43;;;;;;;8.60;7.07;;;;;;;5.71;100.00;99980.81;5589027;31;34482;-64
2022/04/19 15:16:45;;;;;;;10.13;7.37;;;;;;;5.98;100.00;99979.03;5588406;31;32841;-63
2022/04/19 15:19:48;;;;;;;9.82;7.30;;;;;;;5.97;100.00;99982.62;5589141;31;34686;-64